sensor_id;sensor_type;location;lat;lon;timestamp;P1;durP1;ratioP1;P2;durP2;ratioP2
64033;SDS011;50280;49.864;8.638;2022-09-25T00:01:13;12.63;;;7.75;;
64033;SDS011;50280;49.864;8.638;2022-09-25T00:03:46;12.27;;;8.02;;
64033;SDS011;50280;49.864;8.638;2022-09-25T00:06:19;12.10;;;7.90;;
64033;SDS011;50280;49.864;8.638;2022-09-25T00:08:55;12.40;;;8.15;;
64033;SDS011;50280;49.864;8.638;2022-09-25T00:11:29;12.55;;;7.63;;
64033;SDS011;50280;49.864;8.638;2022-09-25T00:14:05;12.75;;;7.38;;
64033;SDS011;50280;49.864;8.638;2022-09-25T00:16:37;12.65;;;8.45;;
64033;SDS011;50280;49.864;8.638;2022-09-25T00:19:10;12.60;;;8.10;;
64033;SDS011;50280;49.864;8.638;2022-09-25T00:21:52;10.45;;;7.40;;
64033;SDS011;50280;49.864;8.638;2022-09-25T00:24:25;13.00;;;7.78;;
64033;SDS011;50280;49.864;8.638;2022-09-25T00:26:57;15.25;;;8.00;;
64033;SDS011;50280;49.864;8.638;2022-09-25T00:29:33;10.18;;;6.35;;
64033;SDS011;50280;49.864;8.638;2022-09-25T00:32:08;12.50;;;6.82;;
64033;SDS011;50280;49.864;8.638;2022-09-25T00:34:42;13.02;;;7.18;;
64033;SDS011;50280;49.864;8.638;2022-09-25T00:37:15;10.63;;;6.57;;
64033;SDS011;50280;49.864;8.638;2022-09-25T00:39:47;10.45;;;6.22;;
64033;SDS011;50280;49.864;8.638;2022-09-25T00:42:20;11.57;;;6.63;;
64033;SDS011;50280;49.864;8.638;2022-09-25T00:44:56;12.98;;;6.57;;
64033;SDS011;50280;49.864;8.638;2022-09-25T00:47:41;10.02;;;6.70;;
64033;SDS011;50280;49.864;8.638;2022-09-25T00:50:30;8.73;;;5.72;;
64033;SDS011;50280;49.864;8.638;2022-09-25T00:53:10;12.13;;;6.00;;
64033;SDS011;50280;49.864;8.638;2022-09-25T00:55:50;11.73;;;6.22;;
64033;SDS011;50280;49.864;8.638;2022-09-25T00:58:25;9.75;;;6.38;;
64033;SDS011;50280;49.864;8.638;2022-09-25T01:01:04;8.38;;;5.88;;
64033;SDS011;50280;49.864;8.638;2022-09-25T01:03:40;12.45;;;5.95;;
64033;SDS011;50280;49.864;8.638;2022-09-25T01:06:14;10.55;;;6.55;;
64033;SDS011;50280;49.864;8.638;2022-09-25T01:08:48;9.27;;;6.32;;
64033;SDS011;50280;49.864;8.638;2022-09-25T01:11:21;10.68;;;6.95;;
64033;SDS011;50280;49.864;8.638;2022-09-25T01:13:54;12.40;;;7.22;;
64033;SDS011;50280;49.864;8.638;2022-09-25T01:16:35;12.68;;;7.50;;
64033;SDS011;50280;49.864;8.638;2022-09-25T01:19:21;10.82;;;7.40;;
64033;SDS011;50280;49.864;8.638;2022-09-25T01:22:24;12.73;;;8.20;;
64033;SDS011;50280;49.864;8.638;2022-09-25T01:25:27;13.32;;;8.18;;
64033;SDS011;50280;49.864;8.638;2022-09-25T01:31:45;14.73;;;8.48;;
64033;SDS011;50280;49.864;8.638;2022-09-25T01:34:32;13.00;;;8.80;;
64033;SDS011;50280;49.864;8.638;2022-09-25T01:40:02;14.20;;;8.85;;
64033;SDS011;50280;49.864;8.638;2022-09-25T01:42:48;17.10;;;10.10;;
64033;SDS011;50280;49.864;8.638;2022-09-25T01:45:39;17.05;;;9.98;;
64033;SDS011;50280;49.864;8.638;2022-09-25T01:48:22;16.42;;;10.18;;
64033;SDS011;50280;49.864;8.638;2022-09-25T01:51:02;15.32;;;10.18;;
64033;SDS011;50280;49.864;8.638;2022-09-25T01:53:47;17.40;;;10.82;;
64033;SDS011;50280;49.864;8.638;2022-09-25T01:56:26;21.33;;;11.82;;
64033;SDS011;50280;49.864;8.638;2022-09-25T01:59:09;17.48;;;11.38;;
64033;SDS011;50280;49.864;8.638;2022-09-25T02:01:52;20.05;;;11.90;;
64033;SDS011;50280;49.864;8.638;2022-09-25T02:04:33;20.50;;;11.15;;
64033;SDS011;50280;49.864;8.638;2022-09-25T02:07:14;16.83;;;10.75;;
64033;SDS011;50280;49.864;8.638;2022-09-25T02:10:00;16.63;;;9.45;;
64033;SDS011;50280;49.864;8.638;2022-09-25T02:12:42;15.38;;;9.27;;
64033;SDS011;50280;49.864;8.638;2022-09-25T02:15:22;14.73;;;9.50;;
64033;SDS011;50280;49.864;8.638;2022-09-25T02:18:04;14.20;;;9.23;;
64033;SDS011;50280;49.864;8.638;2022-09-25T02:20:43;17.08;;;9.38;;
64033;SDS011;50280;49.864;8.638;2022-09-25T02:23:26;17.75;;;9.70;;
64033;SDS011;50280;49.864;8.638;2022-09-25T02:28:56;14.20;;;8.70;;
64033;SDS011;50280;49.864;8.638;2022-09-25T02:31:31;13.98;;;8.80;;
64033;SDS011;50280;49.864;8.638;2022-09-25T02:34:11;14.85;;;9.25;;
64033;SDS011;50280;49.864;8.638;2022-09-25T02:36:44;17.63;;;9.35;;
64033;SDS011;50280;49.864;8.638;2022-09-25T02:39:17;18.23;;;9.63;;
64033;SDS011;50280;49.864;8.638;2022-09-25T02:42:17;18.15;;;9.02;;
64033;SDS011;50280;49.864;8.638;2022-09-25T02:45:10;19.10;;;9.07;;
64033;SDS011;50280;49.864;8.638;2022-09-25T02:48:06;16.05;;;9.00;;
64033;SDS011;50280;49.864;8.638;2022-09-25T02:50:58;18.10;;;8.82;;
64033;SDS011;50280;49.864;8.638;2022-09-25T02:53:43;22.00;;;9.50;;
64033;SDS011;50280;49.864;8.638;2022-09-25T02:56:30;15.13;;;8.70;;
64033;SDS011;50280;49.864;8.638;2022-09-25T02:59:13;18.98;;;9.88;;
64033;SDS011;50280;49.864;8.638;2022-09-25T03:01:58;19.50;;;9.82;;
64033;SDS011;50280;49.864;8.638;2022-09-25T03:04:32;17.15;;;9.38;;
64033;SDS011;50280;49.864;8.638;2022-09-25T03:07:09;21.17;;;10.05;;
64033;SDS011;50280;49.864;8.638;2022-09-25T03:09:42;19.48;;;9.82;;
64033;SDS011;50280;49.864;8.638;2022-09-25T03:12:21;18.35;;;9.55;;
64033;SDS011;50280;49.864;8.638;2022-09-25T03:14:53;19.38;;;10.88;;
64033;SDS011;50280;49.864;8.638;2022-09-25T03:17:25;20.48;;;11.10;;
64033;SDS011;50280;49.864;8.638;2022-09-25T03:19:58;20.23;;;11.20;;
64033;SDS011;50280;49.864;8.638;2022-09-25T03:22:33;21.83;;;12.60;;
64033;SDS011;50280;49.864;8.638;2022-09-25T03:25:05;21.58;;;11.30;;
64033;SDS011;50280;49.864;8.638;2022-09-25T03:27:38;20.45;;;11.32;;
64033;SDS011;50280;49.864;8.638;2022-09-25T03:30:11;21.98;;;12.20;;
64033;SDS011;50280;49.864;8.638;2022-09-25T03:32:44;23.60;;;12.23;;
64033;SDS011;50280;49.864;8.638;2022-09-25T03:35:16;22.80;;;12.48;;
64033;SDS011;50280;49.864;8.638;2022-09-25T03:37:50;22.70;;;12.40;;
64033;SDS011;50280;49.864;8.638;2022-09-25T03:40:22;27.20;;;14.98;;
64033;SDS011;50280;49.864;8.638;2022-09-25T03:42:55;24.13;;;15.13;;
64033;SDS011;50280;49.864;8.638;2022-09-25T03:45:28;24.30;;;15.57;;
64033;SDS011;50280;49.864;8.638;2022-09-25T03:48:00;25.63;;;15.50;;
64033;SDS011;50280;49.864;8.638;2022-09-25T03:50:33;23.25;;;14.65;;
64033;SDS011;50280;49.864;8.638;2022-09-25T03:53:06;26.50;;;16.48;;
64033;SDS011;50280;49.864;8.638;2022-09-25T03:55:39;26.77;;;16.25;;
64033;SDS011;50280;49.864;8.638;2022-09-25T03:58:12;26.50;;;16.90;;
64033;SDS011;50280;49.864;8.638;2022-09-25T04:00:45;26.80;;;17.02;;
64033;SDS011;50280;49.864;8.638;2022-09-25T04:03:18;25.30;;;16.30;;
64033;SDS011;50280;49.864;8.638;2022-09-25T04:05:50;30.80;;;17.88;;
64033;SDS011;50280;49.864;8.638;2022-09-25T04:08:24;28.23;;;17.43;;
64033;SDS011;50280;49.864;8.638;2022-09-25T04:10:59;29.67;;;18.05;;
64033;SDS011;50280;49.864;8.638;2022-09-25T04:13:34;28.77;;;18.50;;
64033;SDS011;50280;49.864;8.638;2022-09-25T04:16:07;34.58;;;19.63;;
64033;SDS011;50280;49.864;8.638;2022-09-25T04:18:40;33.95;;;19.83;;
64033;SDS011;50280;49.864;8.638;2022-09-25T04:21:12;33.30;;;19.95;;
64033;SDS011;50280;49.864;8.638;2022-09-25T04:23:47;35.72;;;21.45;;
64033;SDS011;50280;49.864;8.638;2022-09-25T04:26:19;35.70;;;20.35;;
64033;SDS011;50280;49.864;8.638;2022-09-25T04:28:51;31.98;;;19.90;;
64033;SDS011;50280;49.864;8.638;2022-09-25T04:31:24;34.08;;;20.50;;
64033;SDS011;50280;49.864;8.638;2022-09-25T04:33:56;40.70;;;22.23;;
64033;SDS011;50280;49.864;8.638;2022-09-25T04:36:29;38.72;;;21.33;;
64033;SDS011;50280;49.864;8.638;2022-09-25T04:39:03;35.97;;;18.25;;
64033;SDS011;50280;49.864;8.638;2022-09-25T04:41:35;32.83;;;18.08;;
64033;SDS011;50280;49.864;8.638;2022-09-25T04:44:07;44.17;;;19.00;;
64033;SDS011;50280;49.864;8.638;2022-09-25T04:46:40;39.08;;;18.08;;
64033;SDS011;50280;49.864;8.638;2022-09-25T04:49:12;38.08;;;18.33;;
64033;SDS011;50280;49.864;8.638;2022-09-25T04:51:45;40.63;;;18.70;;
64033;SDS011;50280;49.864;8.638;2022-09-25T04:54:19;38.38;;;17.73;;
64033;SDS011;50280;49.864;8.638;2022-09-25T04:56:51;41.35;;;19.45;;
64033;SDS011;50280;49.864;8.638;2022-09-25T04:59:23;38.20;;;19.48;;
64033;SDS011;50280;49.864;8.638;2022-09-25T05:01:56;38.17;;;18.02;;
64033;SDS011;50280;49.864;8.638;2022-09-25T05:04:28;36.08;;;17.88;;
64033;SDS011;50280;49.864;8.638;2022-09-25T05:07:00;40.05;;;19.23;;
64033;SDS011;50280;49.864;8.638;2022-09-25T05:09:34;39.70;;;18.75;;
64033;SDS011;50280;49.864;8.638;2022-09-25T05:12:06;44.10;;;19.85;;
64033;SDS011;50280;49.864;8.638;2022-09-25T05:14:39;41.35;;;18.45;;
64033;SDS011;50280;49.864;8.638;2022-09-25T05:17:11;43.03;;;18.13;;
64033;SDS011;50280;49.864;8.638;2022-09-25T05:19:43;38.95;;;18.63;;
64033;SDS011;50280;49.864;8.638;2022-09-25T05:22:16;41.67;;;18.83;;
64033;SDS011;50280;49.864;8.638;2022-09-25T05:24:50;34.50;;;17.40;;
64033;SDS011;50280;49.864;8.638;2022-09-25T05:27:22;36.03;;;17.50;;
64033;SDS011;50280;49.864;8.638;2022-09-25T05:29:54;35.20;;;17.40;;
64033;SDS011;50280;49.864;8.638;2022-09-25T05:32:27;39.58;;;17.25;;
64033;SDS011;50280;49.864;8.638;2022-09-25T05:34:59;35.63;;;17.02;;
64033;SDS011;50280;49.864;8.638;2022-09-25T05:37:31;34.95;;;17.33;;
64033;SDS011;50280;49.864;8.638;2022-09-25T05:40:06;39.47;;;17.30;;
64033;SDS011;50280;49.864;8.638;2022-09-25T05:42:40;39.47;;;17.67;;
64033;SDS011;50280;49.864;8.638;2022-09-25T05:45:14;31.42;;;16.45;;
64033;SDS011;50280;49.864;8.638;2022-09-25T05:47:58;37.97;;;16.13;;
64033;SDS011;50280;49.864;8.638;2022-09-25T05:50:32;32.90;;;15.88;;
64033;SDS011;50280;49.864;8.638;2022-09-25T05:53:05;34.88;;;17.40;;
64033;SDS011;50280;49.864;8.638;2022-09-25T05:55:39;34.47;;;16.80;;
64033;SDS011;50280;49.864;8.638;2022-09-25T05:58:11;32.45;;;16.20;;
64033;SDS011;50280;49.864;8.638;2022-09-25T06:00:44;31.17;;;16.67;;
64033;SDS011;50280;49.864;8.638;2022-09-25T06:03:17;30.50;;;15.38;;
64033;SDS011;50280;49.864;8.638;2022-09-25T06:05:49;31.60;;;15.43;;
64033;SDS011;50280;49.864;8.638;2022-09-25T06:08:22;31.15;;;15.75;;
64033;SDS011;50280;49.864;8.638;2022-09-25T06:10:56;27.90;;;14.80;;
64033;SDS011;50280;49.864;8.638;2022-09-25T06:13:31;27.45;;;15.18;;
64033;SDS011;50280;49.864;8.638;2022-09-25T06:16:04;28.05;;;14.32;;
64033;SDS011;50280;49.864;8.638;2022-09-25T06:18:46;29.92;;;14.00;;
64033;SDS011;50280;49.864;8.638;2022-09-25T06:21:19;28.25;;;14.52;;
64033;SDS011;50280;49.864;8.638;2022-09-25T06:23:51;27.80;;;14.25;;
64033;SDS011;50280;49.864;8.638;2022-09-25T06:26:25;30.40;;;14.90;;
64033;SDS011;50280;49.864;8.638;2022-09-25T06:28:57;25.98;;;13.68;;
64033;SDS011;50280;49.864;8.638;2022-09-25T06:31:30;25.95;;;14.30;;
64033;SDS011;50280;49.864;8.638;2022-09-25T06:34:02;29.27;;;14.70;;
64033;SDS011;50280;49.864;8.638;2022-09-25T06:36:35;30.65;;;14.07;;
64033;SDS011;50280;49.864;8.638;2022-09-25T06:39:07;30.15;;;15.23;;
64033;SDS011;50280;49.864;8.638;2022-09-25T06:41:41;31.77;;;16.20;;
64033;SDS011;50280;49.864;8.638;2022-09-25T06:44:13;28.73;;;15.32;;
64033;SDS011;50280;49.864;8.638;2022-09-25T06:46:47;30.55;;;14.55;;
64033;SDS011;50280;49.864;8.638;2022-09-25T06:49:21;29.52;;;14.57;;
64033;SDS011;50280;49.864;8.638;2022-09-25T06:51:53;28.00;;;14.02;;
64033;SDS011;50280;49.864;8.638;2022-09-25T06:54:28;28.98;;;15.43;;
64033;SDS011;50280;49.864;8.638;2022-09-25T06:57:02;29.55;;;14.93;;
64033;SDS011;50280;49.864;8.638;2022-09-25T06:59:35;25.98;;;12.90;;
64033;SDS011;50280;49.864;8.638;2022-09-25T07:02:07;28.67;;;13.77;;
64033;SDS011;50280;49.864;8.638;2022-09-25T07:04:40;26.38;;;13.77;;
64033;SDS011;50280;49.864;8.638;2022-09-25T07:07:12;27.13;;;14.13;;
64033;SDS011;50280;49.864;8.638;2022-09-25T07:09:45;24.35;;;13.82;;
64033;SDS011;50280;49.864;8.638;2022-09-25T07:12:19;26.08;;;13.63;;
64033;SDS011;50280;49.864;8.638;2022-09-25T07:14:51;28.92;;;13.73;;
64033;SDS011;50280;49.864;8.638;2022-09-25T07:17:24;27.13;;;13.98;;
64033;SDS011;50280;49.864;8.638;2022-09-25T07:19:56;23.88;;;13.38;;
64033;SDS011;50280;49.864;8.638;2022-09-25T07:22:28;25.17;;;12.45;;
64033;SDS011;50280;49.864;8.638;2022-09-25T07:25:01;27.38;;;14.23;;
64033;SDS011;50280;49.864;8.638;2022-09-25T07:27:34;24.45;;;13.18;;
64033;SDS011;50280;49.864;8.638;2022-09-25T07:30:08;28.48;;;14.35;;
64033;SDS011;50280;49.864;8.638;2022-09-25T07:32:42;24.52;;;13.00;;
64033;SDS011;50280;49.864;8.638;2022-09-25T07:35:15;24.45;;;12.80;;
64033;SDS011;50280;49.864;8.638;2022-09-25T07:37:47;33.00;;;16.60;;
64033;SDS011;50280;49.864;8.638;2022-09-25T07:40:19;31.95;;;15.90;;
64033;SDS011;50280;49.864;8.638;2022-09-25T07:42:53;27.63;;;13.85;;
64033;SDS011;50280;49.864;8.638;2022-09-25T07:45:30;23.77;;;13.63;;
64033;SDS011;50280;49.864;8.638;2022-09-25T07:48:03;24.95;;;13.38;;
64033;SDS011;50280;49.864;8.638;2022-09-25T07:50:36;25.45;;;13.70;;
64033;SDS011;50280;49.864;8.638;2022-09-25T07:53:08;28.70;;;13.98;;
64033;SDS011;50280;49.864;8.638;2022-09-25T07:55:40;29.98;;;14.35;;
64033;SDS011;50280;49.864;8.638;2022-09-25T07:58:15;24.95;;;13.02;;
64033;SDS011;50280;49.864;8.638;2022-09-25T08:00:47;23.67;;;12.55;;
64033;SDS011;50280;49.864;8.638;2022-09-25T08:03:20;22.80;;;12.45;;
64033;SDS011;50280;49.864;8.638;2022-09-25T08:05:55;25.98;;;13.32;;
64033;SDS011;50280;49.864;8.638;2022-09-25T08:08:29;25.45;;;12.70;;
64033;SDS011;50280;49.864;8.638;2022-09-25T08:11:05;22.33;;;12.00;;
64033;SDS011;50280;49.864;8.638;2022-09-25T08:13:42;23.95;;;12.70;;
64033;SDS011;50280;49.864;8.638;2022-09-25T08:16:16;21.02;;;11.70;;
64033;SDS011;50280;49.864;8.638;2022-09-25T08:18:51;21.90;;;13.18;;
64033;SDS011;50280;49.864;8.638;2022-09-25T08:21:24;24.02;;;12.07;;
64033;SDS011;50280;49.864;8.638;2022-09-25T08:23:56;25.65;;;12.85;;
64033;SDS011;50280;49.864;8.638;2022-09-25T08:26:29;20.20;;;11.43;;
64033;SDS011;50280;49.864;8.638;2022-09-25T08:29:02;22.05;;;12.73;;
64033;SDS011;50280;49.864;8.638;2022-09-25T08:31:35;25.83;;;12.75;;
64033;SDS011;50280;49.864;8.638;2022-09-25T08:34:07;21.48;;;12.25;;
64033;SDS011;50280;49.864;8.638;2022-09-25T08:36:40;26.60;;;13.02;;
64033;SDS011;50280;49.864;8.638;2022-09-25T08:39:12;24.60;;;13.52;;
64033;SDS011;50280;49.864;8.638;2022-09-25T08:41:46;22.58;;;13.00;;
64033;SDS011;50280;49.864;8.638;2022-09-25T08:44:27;23.70;;;13.00;;
64033;SDS011;50280;49.864;8.638;2022-09-25T08:47:08;25.88;;;12.95;;
64033;SDS011;50280;49.864;8.638;2022-09-25T08:49:53;19.98;;;11.93;;
64033;SDS011;50280;49.864;8.638;2022-09-25T08:52:40;20.85;;;12.07;;
64033;SDS011;50280;49.864;8.638;2022-09-25T08:55:21;20.08;;;12.35;;
64033;SDS011;50280;49.864;8.638;2022-09-25T08:58:00;22.90;;;12.63;;
64033;SDS011;50280;49.864;8.638;2022-09-25T09:00:34;22.38;;;12.93;;
64033;SDS011;50280;49.864;8.638;2022-09-25T09:03:07;24.30;;;14.02;;
64033;SDS011;50280;49.864;8.638;2022-09-25T09:05:43;29.63;;;16.10;;
64033;SDS011;50280;49.864;8.638;2022-09-25T09:08:21;24.25;;;14.45;;
64033;SDS011;50280;49.864;8.638;2022-09-25T09:11:00;25.53;;;15.10;;
64033;SDS011;50280;49.864;8.638;2022-09-25T09:13:44;25.23;;;14.13;;
64033;SDS011;50280;49.864;8.638;2022-09-25T09:16:29;21.42;;;12.98;;
64033;SDS011;50280;49.864;8.638;2022-09-25T09:19:15;23.20;;;13.55;;
64033;SDS011;50280;49.864;8.638;2022-09-25T09:21:49;26.33;;;14.20;;
64033;SDS011;50280;49.864;8.638;2022-09-25T09:24:42;24.40;;;13.60;;
64033;SDS011;50280;49.864;8.638;2022-09-25T09:27:35;23.92;;;13.63;;
64033;SDS011;50280;49.864;8.638;2022-09-25T09:30:36;21.13;;;13.05;;
64033;SDS011;50280;49.864;8.638;2022-09-25T09:33:33;24.55;;;13.55;;
64033;SDS011;50280;49.864;8.638;2022-09-25T09:36:28;23.27;;;13.38;;
64033;SDS011;50280;49.864;8.638;2022-09-25T09:39:14;24.08;;;13.48;;
64033;SDS011;50280;49.864;8.638;2022-09-25T09:42:00;25.67;;;14.30;;
64033;SDS011;50280;49.864;8.638;2022-09-25T09:44:50;23.58;;;13.57;;
64033;SDS011;50280;49.864;8.638;2022-09-25T09:47:45;22.95;;;13.35;;
64033;SDS011;50280;49.864;8.638;2022-09-25T09:50:36;24.98;;;14.00;;
64033;SDS011;50280;49.864;8.638;2022-09-25T09:53:23;25.00;;;14.25;;
64033;SDS011;50280;49.864;8.638;2022-09-25T09:56:08;25.35;;;13.48;;
64033;SDS011;50280;49.864;8.638;2022-09-25T09:58:50;21.15;;;12.70;;
64033;SDS011;50280;49.864;8.638;2022-09-25T10:01:29;20.67;;;12.75;;
64033;SDS011;50280;49.864;8.638;2022-09-25T10:04:10;22.52;;;14.25;;
64033;SDS011;50280;49.864;8.638;2022-09-25T10:06:52;23.95;;;13.93;;
64033;SDS011;50280;49.864;8.638;2022-09-25T10:09:34;24.15;;;14.57;;
64033;SDS011;50280;49.864;8.638;2022-09-25T10:12:07;24.35;;;14.38;;
64033;SDS011;50280;49.864;8.638;2022-09-25T10:14:50;23.42;;;14.63;;
64033;SDS011;50280;49.864;8.638;2022-09-25T10:17:24;22.40;;;14.43;;
64033;SDS011;50280;49.864;8.638;2022-09-25T10:20:02;24.70;;;13.90;;
64033;SDS011;50280;49.864;8.638;2022-09-25T10:22:52;20.33;;;13.65;;
64033;SDS011;50280;49.864;8.638;2022-09-25T10:25:35;23.77;;;13.90;;
64033;SDS011;50280;49.864;8.638;2022-09-25T10:28:21;16.13;;;11.60;;
64033;SDS011;50280;49.864;8.638;2022-09-25T10:31:00;16.52;;;11.27;;
64033;SDS011;50280;49.864;8.638;2022-09-25T10:33:38;17.13;;;11.07;;
64033;SDS011;50280;49.864;8.638;2022-09-25T10:36:11;16.35;;;10.75;;
64033;SDS011;50280;49.864;8.638;2022-09-25T10:38:45;16.45;;;11.32;;
64033;SDS011;50280;49.864;8.638;2022-09-25T10:41:19;18.98;;;11.13;;
64033;SDS011;50280;49.864;8.638;2022-09-25T10:43:53;16.92;;;11.05;;
64033;SDS011;50280;49.864;8.638;2022-09-25T10:46:29;15.68;;;11.23;;
64033;SDS011;50280;49.864;8.638;2022-09-25T10:49:10;16.85;;;11.60;;
64033;SDS011;50280;49.864;8.638;2022-09-25T10:51:59;17.40;;;11.95;;
64033;SDS011;50280;49.864;8.638;2022-09-25T10:54:37;17.50;;;12.43;;
64033;SDS011;50280;49.864;8.638;2022-09-25T10:57:13;16.75;;;11.13;;
64033;SDS011;50280;49.864;8.638;2022-09-25T11:00:04;16.55;;;11.05;;
64033;SDS011;50280;49.864;8.638;2022-09-25T11:02:53;17.48;;;11.38;;
64033;SDS011;50280;49.864;8.638;2022-09-25T11:08:07;15.95;;;11.05;;
64033;SDS011;50280;49.864;8.638;2022-09-25T11:10:44;15.55;;;10.68;;
64033;SDS011;50280;49.864;8.638;2022-09-25T11:13:23;25.48;;;17.90;;
64033;SDS011;50280;49.864;8.638;2022-09-25T11:16:01;21.30;;;16.60;;
64033;SDS011;50280;49.864;8.638;2022-09-25T11:18:39;20.25;;;15.13;;
64033;SDS011;50280;49.864;8.638;2022-09-25T11:21:19;20.08;;;14.20;;
64033;SDS011;50280;49.864;8.638;2022-09-25T11:24:05;19.98;;;13.40;;
64033;SDS011;50280;49.864;8.638;2022-09-25T11:26:57;22.70;;;14.07;;
64033;SDS011;50280;49.864;8.638;2022-09-25T11:29:45;23.98;;;14.00;;
64033;SDS011;50280;49.864;8.638;2022-09-25T11:32:36;23.40;;;14.43;;
64033;SDS011;50280;49.864;8.638;2022-09-25T11:35:38;28.02;;;17.20;;
64033;SDS011;50280;49.864;8.638;2022-09-25T11:38:24;46.58;;;28.30;;
64033;SDS011;50280;49.864;8.638;2022-09-25T11:41:15;26.42;;;15.77;;
64033;SDS011;50280;49.864;8.638;2022-09-25T11:44:09;24.45;;;14.60;;
64033;SDS011;50280;49.864;8.638;2022-09-25T11:46:59;25.98;;;15.60;;
64033;SDS011;50280;49.864;8.638;2022-09-25T11:49:48;28.20;;;14.25;;
64033;SDS011;50280;49.864;8.638;2022-09-25T11:52:28;24.27;;;15.18;;
64033;SDS011;50280;49.864;8.638;2022-09-25T11:58:53;21.33;;;13.75;;
64033;SDS011;50280;49.864;8.638;2022-09-25T12:01:53;23.88;;;13.15;;
64033;SDS011;50280;49.864;8.638;2022-09-25T12:04:57;19.88;;;13.10;;
64033;SDS011;50280;49.864;8.638;2022-09-25T12:08:03;19.52;;;12.40;;
64033;SDS011;50280;49.864;8.638;2022-09-25T12:11:01;20.27;;;12.25;;
64033;SDS011;50280;49.864;8.638;2022-09-25T12:13:56;19.15;;;11.80;;
64033;SDS011;50280;49.864;8.638;2022-09-25T12:16:47;18.48;;;11.23;;
64033;SDS011;50280;49.864;8.638;2022-09-25T12:19:39;14.40;;;9.82;;
64033;SDS011;50280;49.864;8.638;2022-09-25T12:22:31;14.75;;;9.48;;
64033;SDS011;50280;49.864;8.638;2022-09-25T12:25:25;11.57;;;8.10;;
64033;SDS011;50280;49.864;8.638;2022-09-25T12:28:23;14.30;;;7.75;;
64033;SDS011;50280;49.864;8.638;2022-09-25T12:31:15;10.70;;;7.85;;
64033;SDS011;50280;49.864;8.638;2022-09-25T12:34:16;16.35;;;10.18;;
64033;SDS011;50280;49.864;8.638;2022-09-25T12:37:16;13.27;;;8.85;;
64033;SDS011;50280;49.864;8.638;2022-09-25T12:40:04;9.48;;;6.50;;
64033;SDS011;50280;49.864;8.638;2022-09-25T12:42:56;8.75;;;5.40;;
64033;SDS011;50280;49.864;8.638;2022-09-25T12:45:40;8.65;;;5.00;;
64033;SDS011;50280;49.864;8.638;2022-09-25T12:48:23;8.52;;;5.28;;
64033;SDS011;50280;49.864;8.638;2022-09-25T12:51:09;9.52;;;5.65;;
64033;SDS011;50280;49.864;8.638;2022-09-25T12:53:51;10.88;;;6.80;;
64033;SDS011;50280;49.864;8.638;2022-09-25T12:56:32;6.70;;;4.10;;
64033;SDS011;50280;49.864;8.638;2022-09-25T12:59:18;6.65;;;3.85;;
64033;SDS011;50280;49.864;8.638;2022-09-25T13:02:04;6.55;;;3.60;;
64033;SDS011;50280;49.864;8.638;2022-09-25T13:04:56;10.10;;;4.15;;
64033;SDS011;50280;49.864;8.638;2022-09-25T13:07:46;8.73;;;3.60;;
64033;SDS011;50280;49.864;8.638;2022-09-25T13:10:30;7.63;;;3.67;;
64033;SDS011;50280;49.864;8.638;2022-09-25T13:13:10;8.45;;;4.15;;
64033;SDS011;50280;49.864;8.638;2022-09-25T13:15:51;10.15;;;3.80;;
64033;SDS011;50280;49.864;8.638;2022-09-25T13:18:29;7.60;;;3.40;;
64033;SDS011;50280;49.864;8.638;2022-09-25T13:24:00;7.30;;;3.92;;
64033;SDS011;50280;49.864;8.638;2022-09-25T13:26:43;8.77;;;4.45;;
64033;SDS011;50280;49.864;8.638;2022-09-25T13:29:22;8.50;;;3.83;;
64033;SDS011;50280;49.864;8.638;2022-09-25T13:32:01;6.30;;;3.53;;
64033;SDS011;50280;49.864;8.638;2022-09-25T13:34:44;7.95;;;3.20;;
64033;SDS011;50280;49.864;8.638;2022-09-25T13:37:25;6.78;;;3.58;;
64033;SDS011;50280;49.864;8.638;2022-09-25T13:40:14;6.50;;;3.33;;
64033;SDS011;50280;49.864;8.638;2022-09-25T13:42:51;8.30;;;3.50;;
64033;SDS011;50280;49.864;8.638;2022-09-25T13:45:25;10.55;;;3.50;;
64033;SDS011;50280;49.864;8.638;2022-09-25T13:48:07;6.68;;;3.38;;
64033;SDS011;50280;49.864;8.638;2022-09-25T13:50:42;7.03;;;3.35;;
64033;SDS011;50280;49.864;8.638;2022-09-25T13:53:21;8.77;;;3.38;;
64033;SDS011;50280;49.864;8.638;2022-09-25T13:56:12;6.80;;;3.03;;
64033;SDS011;50280;49.864;8.638;2022-09-25T13:58:58;7.22;;;3.00;;
64033;SDS011;50280;49.864;8.638;2022-09-25T14:05:15;5.55;;;2.80;;
64033;SDS011;50280;49.864;8.638;2022-09-25T14:07:54;7.43;;;2.90;;
64033;SDS011;50280;49.864;8.638;2022-09-25T14:10:41;7.57;;;3.00;;
64033;SDS011;50280;49.864;8.638;2022-09-25T14:13:20;8.30;;;3.22;;
64033;SDS011;50280;49.864;8.638;2022-09-25T14:15:59;6.28;;;3.05;;
64033;SDS011;50280;49.864;8.638;2022-09-25T14:18:39;7.45;;;2.97;;
64033;SDS011;50280;49.864;8.638;2022-09-25T14:21:14;8.70;;;3.10;;
64033;SDS011;50280;49.864;8.638;2022-09-25T14:23:52;5.63;;;2.83;;
64033;SDS011;50280;49.864;8.638;2022-09-25T14:26:28;7.50;;;3.45;;
64033;SDS011;50280;49.864;8.638;2022-09-25T14:29:01;8.68;;;3.47;;
64033;SDS011;50280;49.864;8.638;2022-09-25T14:31:37;6.05;;;3.13;;
64033;SDS011;50280;49.864;8.638;2022-09-25T14:34:26;6.28;;;3.00;;
64033;SDS011;50280;49.864;8.638;2022-09-25T14:37:37;4.20;;;2.42;;
64033;SDS011;50280;49.864;8.638;2022-09-25T14:40:39;6.07;;;3.00;;
64033;SDS011;50280;49.864;8.638;2022-09-25T14:43:36;6.65;;;2.75;;
64033;SDS011;50280;49.864;8.638;2022-09-25T14:46:35;6.78;;;2.90;;
64033;SDS011;50280;49.864;8.638;2022-09-25T14:49:09;8.02;;;3.00;;
64033;SDS011;50280;49.864;8.638;2022-09-25T14:51:59;5.65;;;3.30;;
64033;SDS011;50280;49.864;8.638;2022-09-25T14:54:39;5.95;;;3.03;;
64033;SDS011;50280;49.864;8.638;2022-09-25T14:57:19;8.32;;;3.20;;
64033;SDS011;50280;49.864;8.638;2022-09-25T15:00:00;4.25;;;3.00;;
64033;SDS011;50280;49.864;8.638;2022-09-25T15:02:39;7.25;;;3.17;;
64033;SDS011;50280;49.864;8.638;2022-09-25T15:08:01;6.03;;;3.08;;
64033;SDS011;50280;49.864;8.638;2022-09-25T15:10:59;4.88;;;2.83;;
64033;SDS011;50280;49.864;8.638;2022-09-25T15:13:39;6.45;;;3.13;;
64033;SDS011;50280;49.864;8.638;2022-09-25T15:16:13;5.15;;;2.60;;
64033;SDS011;50280;49.864;8.638;2022-09-25T15:18:53;6.57;;;2.72;;
64033;SDS011;50280;49.864;8.638;2022-09-25T15:21:31;3.97;;;2.70;;
64033;SDS011;50280;49.864;8.638;2022-09-25T15:24:09;5.63;;;2.28;;
64033;SDS011;50280;49.864;8.638;2022-09-25T15:26:49;4.90;;;2.25;;
64033;SDS011;50280;49.864;8.638;2022-09-25T15:29:31;3.88;;;2.13;;
64033;SDS011;50280;49.864;8.638;2022-09-25T15:32:13;5.38;;;2.45;;
64033;SDS011;50280;49.864;8.638;2022-09-25T15:35:04;4.47;;;2.30;;
64033;SDS011;50280;49.864;8.638;2022-09-25T15:37:49;3.92;;;1.90;;
64033;SDS011;50280;49.864;8.638;2022-09-25T15:40:41;4.35;;;2.38;;
64033;SDS011;50280;49.864;8.638;2022-09-25T15:43:13;3.80;;;2.08;;
64033;SDS011;50280;49.864;8.638;2022-09-25T15:45:49;3.58;;;1.95;;
64033;SDS011;50280;49.864;8.638;2022-09-25T15:48:29;4.55;;;2.40;;
64033;SDS011;50280;49.864;8.638;2022-09-25T15:51:12;5.97;;;2.45;;
64033;SDS011;50280;49.864;8.638;2022-09-25T15:53:52;5.65;;;2.05;;
64033;SDS011;50280;49.864;8.638;2022-09-25T15:56:32;5.73;;;2.23;;
64033;SDS011;50280;49.864;8.638;2022-09-25T15:59:17;5.72;;;2.10;;
64033;SDS011;50280;49.864;8.638;2022-09-25T16:01:57;4.95;;;2.22;;
64033;SDS011;50280;49.864;8.638;2022-09-25T16:04:37;3.65;;;2.30;;